Migrate, Kentucky
Current Conditions -  °F | °C
As of 3:16 PM on Monday 26 Jan 2015 (Local Time) from KLEX Reporting Station
Overcast Overcast  
Wind Chill: 17°   Ceiling: 1500
Heat Index: 27°   Visibility: 10mi
Dew Point: 21°   Wind: 10mph
Humidity: 78%   Direction: 280°W
Pressure: 29.89"   Gusts: NA
Location:  38.0638°N, 84.5027°W
Report Text: KLEX 262016Z 28009KT 10SM OVC015 M03/M06 A2989 RMK AO2 T10281061 $
Loading
Personal Weather Stations






























Interactive Weather Map New forecast layout! Learn more

10-Day Weather Forecast

Advertisements
Track Severe Weather on mobile